createdAt,value
2022-10-20T00:00:21.413Z,17.02
2022-10-20T00:02:48.293Z,12.35
2022-10-20T00:05:15.259Z,8.98
2022-10-20T00:07:42.133Z,7.20
2022-10-20T00:10:09.490Z,8.50
2022-10-20T00:12:36.829Z,9.93
2022-10-20T00:15:04.346Z,11.45
2022-10-20T00:17:31.191Z,15.68
2022-10-20T00:19:58.626Z,16.35
2022-10-20T00:22:25.486Z,15.10
2022-10-20T00:24:52.657Z,14.32
2022-10-20T00:27:19.485Z,14.77
2022-10-20T00:29:48.587Z,12.57
2022-10-20T00:32:15.949Z,14.15
2022-10-20T00:34:42.765Z,15.10
2022-10-20T00:37:09.668Z,11.32
2022-10-20T00:39:36.554Z,11.45
2022-10-20T00:42:04.492Z,10.75
2022-10-20T00:44:57.244Z,10.40
2022-10-20T00:47:39.236Z,9.43
2022-10-20T00:50:12.022Z,11.32
2022-10-20T00:52:40.333Z,10.95
2022-10-20T00:55:11.851Z,11.88
2022-10-20T00:57:39.326Z,12.35
2022-10-20T01:00:08.948Z,13.63
2022-10-20T01:02:36.467Z,12.57
2022-10-20T01:05:03.676Z,13.32
2022-10-20T01:07:30.668Z,11.85
2022-10-20T01:09:57.677Z,12.25
2022-10-20T01:12:39.459Z,12.15
2022-10-20T01:15:12.588Z,12.80
2022-10-20T01:17:59.616Z,13.48
2022-10-20T01:20:52.837Z,18.10
2022-10-20T01:23:43.929Z,16.88
2022-10-20T01:26:32.188Z,19.20
2022-10-20T01:29:13.261Z,15.02
2022-10-20T01:31:40.063Z,15.10
2022-10-20T01:34:27.035Z,14.35
2022-10-20T01:36:53.813Z,14.50
2022-10-20T01:39:36.069Z,14.05
2022-10-20T01:42:14.144Z,14.32
2022-10-20T01:44:43.268Z,14.55
2022-10-20T01:47:12.078Z,14.07
2022-10-20T01:49:43.688Z,13.65
2022-10-20T01:52:11.879Z,13.30
2022-10-20T01:54:39.484Z,12.70
2022-10-20T01:57:18.609Z,13.13
2022-10-20T02:00:05.163Z,13.40
2022-10-20T02:03:14.758Z,10.90
2022-10-20T02:05:53.789Z,11.57
2022-10-20T02:08:31.565Z,13.00
2022-10-20T02:11:02.965Z,11.88
2022-10-20T02:13:31.402Z,10.40
2022-10-20T02:16:03.021Z,10.10
2022-10-20T02:18:38.976Z,10.15
2022-10-20T02:21:07.548Z,10.35
2022-10-20T02:23:37.883Z,10.52
2022-10-20T02:26:09.240Z,10.57
2022-10-20T02:28:39.049Z,9.35
2022-10-20T02:31:06.238Z,11.82
2022-10-20T02:33:35.215Z,6.68
2022-10-20T02:36:05.945Z,6.82
2022-10-20T02:38:32.849Z,7.97
2022-10-20T02:40:59.774Z,7.78
2022-10-20T02:43:26.654Z,7.93
2022-10-20T02:45:53.529Z,8.23
2022-10-20T02:48:20.385Z,8.55
2022-10-20T02:50:47.231Z,9.32
2022-10-20T02:53:14.054Z,9.80
2022-10-20T02:55:42.605Z,8.52
2022-10-20T02:58:10.129Z,7.00
2022-10-20T03:00:37.182Z,7.97
2022-10-20T03:03:04.107Z,7.13
2022-10-20T03:05:30.978Z,6.93
2022-10-20T03:07:57.865Z,7.43
2022-10-20T03:10:24.708Z,7.80
2022-10-20T03:12:51.585Z,7.75
2022-10-20T03:15:18.434Z,7.88
2022-10-20T03:17:45.249Z,7.20
2022-10-20T03:20:12.216Z,7.00
2022-10-20T03:22:39.055Z,8.10
2022-10-20T03:25:06.113Z,7.82
2022-10-20T03:27:33.057Z,7.88
2022-10-20T03:30:00.155Z,7.07
2022-10-20T03:32:27.061Z,7.63
2022-10-20T03:34:53.899Z,7.32
2022-10-20T03:37:20.917Z,6.70
2022-10-20T03:39:47.735Z,6.10
2022-10-20T03:42:15.263Z,5.88
2022-10-20T03:44:45.024Z,5.55
2022-10-20T03:47:13.405Z,7.20
2022-10-20T03:49:40.693Z,7.55
2022-10-20T03:52:07.713Z,6.80
2022-10-20T03:54:36.063Z,5.45
2022-10-20T03:57:06.877Z,5.68
2022-10-20T03:59:34.860Z,4.53
2022-10-20T04:02:01.956Z,4.20
2022-10-20T04:04:29.060Z,4.32
2022-10-20T04:06:55.907Z,4.28
2022-10-20T04:09:22.735Z,4.82
2022-10-20T04:11:49.663Z,4.95
2022-10-20T04:14:16.503Z,4.63
2022-10-20T04:16:43.396Z,4.72
2022-10-20T04:19:10.315Z,5.25
2022-10-20T04:21:37.212Z,4.55
2022-10-20T04:24:05.365Z,4.95
2022-10-20T04:26:32.407Z,4.47
2022-10-20T04:28:59.294Z,5.32
2022-10-20T04:31:26.176Z,4.65
2022-10-20T04:33:53.053Z,5.20
2022-10-20T04:36:19.958Z,5.10
2022-10-20T04:38:46.798Z,4.53
2022-10-20T04:41:13.634Z,4.45
2022-10-20T04:43:40.571Z,4.20
2022-10-20T04:46:08.699Z,6.25
2022-10-20T04:48:37.234Z,5.22
2022-10-20T04:51:09.510Z,4.93
2022-10-20T04:53:37.081Z,4.65
2022-10-20T04:56:05.604Z,4.07
2022-10-20T04:58:33.803Z,4.30
2022-10-20T05:01:08.837Z,4.28
2022-10-20T05:03:36.930Z,3.70
2022-10-20T05:06:33.538Z,3.22
2022-10-20T05:09:05.757Z,3.00
2022-10-20T05:11:36.247Z,2.20
2022-10-20T05:14:03.106Z,2.88
2022-10-20T05:16:30.048Z,2.60
2022-10-20T05:18:58.276Z,2.33
2022-10-20T05:21:27.417Z,2.40
2022-10-20T05:23:59.085Z,2.55
2022-10-20T05:26:28.388Z,2.42
2022-10-20T05:28:55.543Z,2.05
2022-10-20T05:31:23.344Z,1.90
2022-10-20T05:33:52.990Z,1.90
2022-10-20T05:36:23.091Z,2.17
2022-10-20T05:38:52.276Z,1.88
2022-10-20T05:41:21.494Z,1.90
2022-10-20T05:43:53.929Z,1.90
2022-10-20T05:46:21.268Z,1.33
2022-10-20T05:48:48.179Z,1.85
2022-10-20T05:51:17.842Z,1.77
2022-10-20T05:53:47.096Z,1.67
2022-10-20T05:56:17.671Z,2.05
2022-10-20T05:58:44.812Z,1.50
2022-10-20T06:01:24.865Z,2.20
2022-10-20T06:04:00.501Z,1.35
2022-10-20T06:06:29.923Z,1.58
2022-10-20T06:08:59.452Z,1.70
2022-10-20T06:11:27.330Z,1.55
2022-10-20T06:13:54.226Z,1.13
2022-10-20T06:16:24.628Z,1.77
2022-10-20T06:18:52.308Z,1.17
2022-10-20T06:21:20.362Z,1.60
2022-10-20T06:23:47.844Z,1.50
2022-10-20T06:26:20.608Z,1.20
2022-10-20T06:28:50.541Z,1.35
2022-10-20T06:31:20.042Z,1.33
2022-10-20T06:33:47.780Z,1.10
2022-10-20T06:36:15.570Z,1.02
2022-10-20T06:38:43.464Z,1.10
2022-10-20T06:41:13.523Z,1.33
2022-10-20T06:43:40.605Z,1.25
2022-10-20T06:46:12.080Z,1.20
2022-10-20T06:48:39.056Z,1.38
2022-10-20T06:51:10.047Z,1.60
2022-10-20T06:53:38.912Z,0.82
2022-10-20T06:56:13.772Z,1.52
2022-10-20T06:58:42.815Z,1.35
2022-10-20T07:01:15.228Z,1.13
2022-10-20T07:03:43.665Z,0.80
2022-10-20T07:06:14.717Z,0.82
2022-10-20T07:08:41.766Z,1.20
2022-10-20T07:11:20.469Z,1.27
2022-10-20T07:13:49.431Z,1.20
2022-10-20T07:16:20.007Z,1.10
2022-10-20T07:18:47.767Z,2.72
2022-10-20T07:21:17.257Z,1.33
2022-10-20T07:23:44.725Z,1.38
2022-10-20T07:26:16.776Z,1.00
2022-10-20T07:28:46.543Z,1.20
2022-10-20T07:31:22.271Z,1.30
2022-10-20T07:34:07.071Z,0.85
2022-10-20T07:36:38.344Z,1.00
2022-10-20T07:39:06.302Z,1.13
2022-10-20T07:41:34.562Z,0.90
2022-10-20T07:44:01.784Z,1.13
2022-10-20T07:46:28.788Z,1.25
2022-10-20T07:49:02.726Z,0.77
2022-10-20T07:51:38.515Z,0.90
2022-10-20T07:54:07.589Z,1.10
2022-10-20T07:56:38.498Z,0.90
2022-10-20T07:59:06.758Z,1.15
2022-10-20T08:01:34.627Z,0.85
2022-10-20T08:04:01.565Z,1.13
2022-10-20T08:06:28.551Z,0.95
2022-10-20T08:08:55.520Z,1.08
2022-10-20T08:11:22.999Z,0.90
2022-10-20T08:13:49.857Z,1.02
2022-10-20T08:16:17.466Z,0.88
2022-10-20T08:18:49.267Z,0.98
2022-10-20T08:21:19.242Z,0.90
2022-10-20T08:23:47.958Z,0.90
2022-10-20T08:26:20.347Z,0.65
2022-10-20T08:28:48.788Z,0.90
2022-10-20T08:31:16.987Z,0.98
2022-10-20T08:33:45.293Z,1.40
2022-10-20T08:36:15.050Z,0.73
2022-10-20T08:38:43.531Z,1.13
2022-10-20T08:41:23.543Z,0.80
2022-10-20T08:43:54.195Z,1.00
2022-10-20T08:46:27.329Z,0.98
2022-10-20T08:48:54.346Z,0.80
2022-10-20T08:51:24.311Z,0.95
2022-10-20T08:53:55.787Z,0.90
2022-10-20T08:56:25.727Z,0.77
2022-10-20T08:58:53.071Z,0.90
2022-10-20T09:01:21.889Z,0.68
2022-10-20T09:03:56.748Z,1.00
2022-10-20T09:06:23.835Z,1.02
2022-10-20T09:08:51.485Z,0.60
2022-10-20T09:11:28.675Z,0.70
2022-10-20T09:13:55.811Z,0.80
2022-10-20T09:16:40.822Z,0.75
2022-10-20T09:19:21.521Z,0.65
2022-10-20T09:21:53.039Z,0.90
2022-10-20T09:24:22.428Z,0.45
2022-10-20T09:26:58.800Z,0.55
2022-10-20T09:29:38.983Z,0.95
2022-10-20T09:32:52.924Z,0.95
2022-10-20T09:35:34.088Z,0.98
2022-10-20T09:38:17.358Z,0.60
2022-10-20T09:41:10.365Z,0.60
2022-10-20T09:43:58.206Z,0.60
2022-10-20T09:46:40.180Z,0.60
2022-10-20T09:49:08.261Z,0.70
2022-10-20T09:51:35.320Z,1.10
2022-10-20T09:54:08.075Z,0.75
2022-10-20T09:56:43.301Z,0.50
2022-10-20T09:59:22.082Z,0.77
2022-10-20T10:01:59.773Z,0.65
2022-10-20T10:04:34.085Z,0.57
2022-10-20T10:07:01.949Z,0.70
2022-10-20T10:09:38.356Z,0.80
2022-10-20T10:12:26.384Z,0.70
2022-10-20T10:15:20.675Z,0.90
2022-10-20T10:17:47.674Z,1.00
2022-10-20T10:20:14.862Z,0.80
2022-10-20T10:22:42.312Z,1.83
2022-10-20T10:25:27.907Z,0.70
2022-10-20T10:28:08.992Z,1.23
2022-10-20T10:30:38.341Z,1.00
2022-10-20T10:33:25.457Z,0.70
2022-10-20T10:35:52.797Z,0.90
2022-10-20T10:38:20.231Z,0.57
2022-10-20T10:40:47.044Z,0.60
2022-10-20T10:43:32.063Z,0.80
2022-10-20T10:46:26.189Z,0.77
2022-10-20T10:49:05.619Z,0.82
2022-10-20T10:52:09.677Z,0.70
2022-10-20T10:55:04.178Z,0.93
2022-10-20T10:57:37.079Z,0.80
2022-10-20T11:00:16.384Z,0.90
2022-10-20T11:02:58.017Z,0.77
2022-10-20T11:05:41.864Z,0.90
2022-10-20T11:08:11.606Z,0.77
2022-10-20T11:11:07.268Z,0.80
2022-10-20T11:13:40.203Z,0.88
2022-10-20T11:16:44.169Z,0.90
2022-10-20T11:19:22.924Z,0.80
2022-10-20T11:22:10.540Z,0.77
2022-10-20T11:24:49.331Z,0.80
2022-10-20T11:27:27.849Z,0.70
2022-10-20T11:30:22.253Z,0.73
2022-10-20T11:33:21.074Z,0.73
2022-10-20T11:36:03.766Z,1.25
2022-10-20T11:38:35.517Z,0.80
2022-10-20T11:41:17.201Z,1.00
2022-10-20T11:43:55.455Z,1.10
2022-10-20T11:46:32.103Z,0.90
2022-10-20T11:49:01.852Z,0.80
2022-10-20T11:51:30.969Z,0.70
2022-10-20T11:54:03.878Z,0.80
2022-10-20T11:57:03.738Z,1.00
2022-10-20T11:59:55.541Z,0.90
2022-10-20T12:02:25.156Z,0.80
2022-10-20T12:04:54.872Z,1.00
2022-10-20T12:07:46.989Z,1.00
2022-10-20T12:10:33.059Z,0.90
2022-10-20T12:13:05.854Z,2.55
2022-10-20T12:15:33.114Z,0.85
2022-10-20T12:18:05.654Z,1.10
2022-10-20T12:20:38.673Z,0.77
2022-10-20T12:23:05.663Z,1.02
2022-10-20T12:25:38.624Z,1.05
2022-10-20T12:28:20.627Z,1.25
2022-10-20T12:30:55.377Z,1.27
2022-10-20T12:33:49.521Z,0.93
2022-10-20T12:36:19.397Z,0.93
2022-10-20T12:38:53.262Z,1.58
2022-10-20T12:41:35.508Z,0.82
2022-10-20T12:44:07.584Z,0.80
2022-10-20T12:46:51.739Z,0.90
2022-10-20T12:49:29.956Z,1.00
2022-10-20T12:51:59.576Z,1.13
2022-10-20T12:54:34.667Z,1.15
2022-10-20T12:57:06.091Z,1.20
2022-10-20T12:59:32.952Z,1.17
2022-10-20T13:02:08.703Z,0.75
2022-10-20T13:04:58.209Z,1.13
2022-10-20T13:07:46.813Z,1.27
2022-10-20T13:10:31.615Z,1.27
2022-10-20T13:13:01.450Z,0.90
2022-10-20T13:15:39.163Z,1.00
2022-10-20T13:18:12.397Z,1.10
2022-10-20T13:21:02.672Z,0.93
2022-10-20T13:23:41.254Z,1.20
2022-10-20T13:26:26.259Z,1.20
2022-10-20T13:28:55.853Z,0.98
2022-10-20T13:31:31.025Z,1.63
2022-10-20T13:34:16.072Z,1.30
2022-10-20T13:37:21.626Z,0.65
2022-10-20T13:40:18.832Z,0.82
2022-10-20T13:43:23.912Z,1.00
2022-10-20T13:46:11.962Z,0.90
2022-10-20T13:49:13.726Z,1.23
2022-10-20T13:51:49.778Z,1.10
2022-10-20T13:54:26.977Z,0.98
2022-10-20T13:56:54.981Z,0.98
2022-10-20T13:59:25.252Z,0.82
2022-10-20T14:02:01.441Z,1.00
2022-10-20T14:04:36.581Z,0.90
2022-10-20T14:09:39.517Z,1.63
2022-10-20T14:12:26.417Z,1.13
2022-10-20T14:15:01.464Z,1.25
2022-10-20T14:17:28.938Z,1.00
2022-10-20T14:20:18.543Z,1.40
2022-10-20T14:22:46.215Z,0.93
2022-10-20T14:25:13.477Z,1.00
2022-10-20T14:27:40.779Z,1.13
2022-10-20T14:30:08.703Z,0.65
2022-10-20T14:32:40.035Z,1.02
2022-10-20T14:35:29.848Z,1.20
2022-10-20T14:37:59.704Z,0.82
2022-10-20T14:40:33.422Z,0.90
2022-10-20T14:43:04.681Z,1.20
2022-10-20T14:48:01.736Z,1.10
2022-10-20T14:50:31.334Z,0.80
2022-10-20T14:53:15.626Z,0.82
2022-10-20T14:55:42.646Z,1.35
2022-10-20T14:58:33.225Z,1.98
2022-10-20T15:01:20.073Z,0.98
2022-10-20T15:03:47.119Z,1.20
2022-10-20T15:06:18.196Z,1.05
2022-10-20T15:08:57.834Z,2.67
2022-10-20T15:11:28.163Z,1.63
2022-10-20T15:13:59.120Z,0.95
2022-10-20T15:16:44.612Z,0.95
2022-10-20T15:19:28.318Z,1.27
2022-10-20T15:22:01.739Z,1.23
2022-10-20T15:24:29.352Z,1.02
2022-10-20T15:26:57.311Z,1.30
2022-10-20T15:29:24.771Z,1.08
2022-10-20T15:31:52.031Z,1.00
2022-10-20T15:34:18.887Z,1.17
2022-10-20T15:36:48.891Z,1.48
2022-10-20T15:39:18.165Z,2.45
2022-10-20T15:41:45.642Z,1.55
2022-10-20T15:44:22.450Z,2.08
2022-10-20T15:46:53.596Z,1.58
2022-10-20T15:49:21.299Z,1.25
2022-10-20T15:51:50.554Z,1.50
2022-10-20T15:54:20.551Z,1.38
2022-10-20T15:56:47.961Z,1.73
2022-10-20T15:59:14.872Z,1.55
2022-10-20T16:01:41.795Z,1.63
2022-10-20T16:04:19.022Z,1.50
2022-10-20T16:06:45.962Z,1.67
2022-10-20T16:09:15.793Z,1.75
2022-10-20T16:11:43.718Z,1.50
2022-10-20T16:14:10.937Z,1.67
2022-10-20T16:16:37.875Z,1.33
2022-10-20T16:19:05.448Z,2.15
2022-10-20T16:21:34.012Z,1.60
2022-10-20T16:24:01.222Z,1.58
2022-10-20T16:26:28.189Z,1.60
2022-10-20T16:28:55.094Z,2.00
2022-10-20T16:31:21.996Z,1.77
2022-10-20T16:33:49.312Z,1.88
2022-10-20T16:36:18.392Z,1.98
2022-10-20T16:38:45.386Z,1.52
2022-10-20T16:41:14.708Z,1.60
2022-10-20T16:43:45.209Z,1.52
2022-10-20T16:46:13.302Z,1.65
2022-10-20T16:48:42.686Z,2.30
2022-10-20T16:51:12.874Z,1.45
2022-10-20T16:53:39.813Z,1.38
2022-10-20T16:56:07.969Z,3.75
2022-10-20T16:58:35.466Z,2.03
2022-10-20T17:01:12.335Z,1.35
2022-10-20T17:06:18.357Z,2.25
2022-10-20T17:08:45.389Z,1.30
2022-10-20T17:11:18.180Z,1.70
2022-10-20T17:13:45.617Z,1.48
2022-10-20T17:16:20.696Z,1.40
2022-10-20T17:18:49.547Z,1.15
2022-10-20T17:21:16.666Z,1.42
2022-10-20T17:23:44.927Z,1.23
2022-10-20T17:26:15.457Z,1.95
2022-10-20T17:28:42.578Z,1.70
2022-10-20T17:31:13.460Z,2.78
2022-10-20T17:33:41.008Z,1.52
2022-10-20T17:36:08.794Z,1.60
2022-10-20T17:38:36.259Z,1.40
2022-10-20T17:41:04.874Z,1.90
2022-10-20T17:43:32.168Z,1.60
2022-10-20T17:46:01.133Z,1.58
2022-10-20T17:48:28.172Z,1.52
2022-10-20T17:51:04.077Z,1.90
2022-10-20T17:53:33.335Z,1.90
2022-10-20T17:56:04.850Z,1.80
2022-10-20T17:58:33.748Z,1.73
2022-10-20T18:01:24.921Z,2.25
2022-10-20T18:04:15.292Z,2.10
2022-10-20T18:06:43.986Z,2.15
2022-10-20T18:09:17.704Z,2.33
2022-10-20T18:11:47.891Z,1.83
2022-10-20T18:14:15.134Z,2.30
2022-10-20T18:16:42.185Z,2.00
2022-10-20T18:19:14.301Z,2.00
2022-10-20T18:21:41.397Z,2.35
2022-10-20T18:24:11.245Z,2.63
2022-10-20T18:26:38.809Z,2.15
2022-10-20T18:29:08.488Z,2.22
2022-10-20T18:31:37.578Z,2.70
2022-10-20T18:34:11.016Z,2.85
2022-10-20T18:36:41.865Z,3.58
2022-10-20T18:39:12.074Z,4.00
2022-10-20T18:41:41.251Z,3.28
2022-10-20T18:44:12.673Z,2.58
2022-10-20T18:46:40.107Z,5.30
2022-10-20T18:49:08.434Z,3.85
2022-10-20T18:51:36.313Z,8.70
2022-10-20T18:54:04.709Z,8.40
2022-10-20T18:56:31.844Z,5.43
2022-10-20T18:59:01.581Z,10.73
2022-10-20T19:01:31.398Z,16.80
2022-10-20T19:03:59.189Z,23.83
2022-10-20T19:06:27.762Z,19.23
2022-10-20T19:08:57.953Z,14.05
2022-10-20T19:11:28.275Z,12.65
2022-10-20T19:13:56.853Z,12.25
2022-10-20T19:16:26.366Z,9.23
2022-10-20T19:18:55.489Z,22.70
2022-10-20T19:21:24.005Z,12.45
2022-10-20T19:23:53.933Z,12.02
2022-10-20T19:26:36.563Z,8.43
2022-10-20T19:29:10.129Z,7.85
2022-10-20T19:31:42.899Z,5.57
2022-10-20T19:34:16.357Z,4.88
2022-10-20T19:36:46.663Z,4.93
2022-10-20T19:39:20.050Z,4.18
2022-10-20T19:41:47.663Z,3.42
2022-10-20T19:44:17.462Z,3.20
2022-10-20T19:46:46.500Z,3.35
2022-10-20T19:49:13.953Z,3.92
2022-10-20T19:51:41.653Z,3.08
2022-10-20T19:54:08.768Z,2.72
2022-10-20T19:56:36.107Z,3.45
2022-10-20T19:59:04.901Z,2.63
2022-10-20T20:01:32.710Z,3.47
2022-10-20T20:03:59.949Z,2.92
2022-10-20T20:06:28.558Z,2.85
2022-10-20T20:08:59.418Z,2.70
2022-10-20T20:11:29.668Z,3.70
2022-10-20T20:14:02.679Z,3.03
2022-10-20T20:16:29.664Z,2.42
2022-10-20T20:18:57.145Z,2.90
2022-10-20T20:21:24.777Z,3.28
2022-10-20T20:24:00.805Z,2.90
2022-10-20T20:26:30.338Z,2.28
2022-10-20T20:28:58.102Z,3.08
2022-10-20T20:31:25.841Z,3.70
2022-10-20T20:33:53.674Z,2.30
2022-10-20T20:36:21.147Z,2.10
2022-10-20T20:38:48.139Z,2.53
2022-10-20T20:41:17.055Z,2.72
2022-10-20T20:43:47.536Z,2.22
2022-10-20T20:46:17.303Z,2.38
2022-10-20T20:48:44.904Z,2.03
2022-10-20T20:51:12.714Z,3.42
2022-10-20T20:53:40.597Z,2.25
2022-10-20T20:56:09.902Z,2.40
2022-10-20T20:58:37.911Z,3.00
2022-10-20T21:01:11.189Z,2.47
2022-10-20T21:03:39.026Z,4.13
2022-10-20T21:06:12.030Z,2.65
2022-10-20T21:08:41.079Z,2.80
2022-10-20T21:11:09.218Z,3.17
2022-10-20T21:13:37.026Z,3.63
2022-10-20T21:16:12.592Z,4.22
2022-10-20T21:18:41.049Z,3.05
2022-10-20T21:21:16.404Z,2.97
2022-10-20T21:26:11.726Z,2.70
2022-10-20T21:28:39.308Z,2.50
2022-10-20T21:31:07.969Z,2.95
2022-10-20T21:33:36.021Z,2.42
2022-10-20T21:36:05.203Z,2.63
2022-10-20T21:38:36.379Z,2.20
2022-10-20T21:41:05.728Z,2.80
2022-10-20T21:43:33.758Z,3.05
2022-10-20T21:46:23.104Z,2.13
2022-10-20T21:48:51.812Z,3.13
2022-10-20T21:51:22.288Z,2.22
2022-10-20T21:53:49.566Z,2.30
2022-10-20T21:56:16.612Z,2.00
2022-10-20T21:58:43.470Z,3.17
2022-10-20T22:01:11.066Z,3.15
2022-10-20T22:03:38.064Z,2.95
2022-10-20T22:06:06.088Z,2.72
2022-10-20T22:08:38.477Z,3.60
2022-10-20T22:11:07.703Z,3.25
2022-10-20T22:13:34.706Z,3.75
2022-10-20T22:16:02.168Z,2.70
2022-10-20T22:18:29.012Z,2.40
2022-10-20T22:20:55.870Z,2.55
2022-10-20T22:23:22.738Z,2.53
2022-10-20T22:25:53.905Z,2.42
2022-10-20T22:28:20.807Z,2.30
2022-10-20T22:30:47.768Z,2.20
2022-10-20T22:33:14.704Z,1.90
2022-10-20T22:35:41.641Z,2.00
2022-10-20T22:38:08.649Z,2.50
2022-10-20T22:40:35.834Z,2.22
2022-10-20T22:43:02.899Z,1.90
2022-10-20T22:45:29.932Z,2.10
2022-10-20T22:47:56.854Z,1.85
2022-10-20T22:50:24.145Z,2.75
2022-10-20T22:52:51.076Z,2.15
2022-10-20T22:55:18.842Z,1.60
2022-10-20T22:57:50.059Z,1.98
2022-10-20T23:00:18.377Z,2.08
2022-10-20T23:02:45.744Z,1.90
2022-10-20T23:05:12.807Z,1.95
2022-10-20T23:07:40.356Z,1.88
2022-10-20T23:10:08.272Z,2.30
2022-10-20T23:12:35.781Z,2.90
2022-10-20T23:15:03.553Z,1.85
2022-10-20T23:17:30.515Z,2.53
2022-10-20T23:19:57.661Z,2.00
2022-10-20T23:22:24.870Z,1.67
2022-10-20T23:24:51.834Z,1.85
2022-10-20T23:27:18.677Z,2.40
2022-10-20T23:29:45.547Z,2.20
2022-10-20T23:32:12.413Z,2.40
2022-10-20T23:34:39.295Z,3.03
2022-10-20T23:37:06.143Z,1.88
2022-10-20T23:39:33.059Z,2.00
2022-10-20T23:42:03.465Z,1.67
2022-10-20T23:44:34.035Z,1.88
2022-10-20T23:47:00.932Z,1.95
2022-10-20T23:49:27.809Z,2.05
2022-10-20T23:51:54.706Z,1.98
2022-10-20T23:54:21.793Z,1.83
2022-10-20T23:56:48.706Z,1.65
2022-10-20T23:59:15.598Z,1.70
